createdAt,value
2023-04-06T00:01:43.785Z,21.02
2023-04-06T00:04:11.295Z,26.65
2023-04-06T00:06:38.938Z,21.13
2023-04-06T00:09:06.312Z,24.23
2023-04-06T00:11:33.778Z,24.70
2023-04-06T00:14:01.300Z,23.33
2023-04-06T00:16:30.442Z,22.27
2023-04-06T00:18:57.840Z,22.73
2023-04-06T00:21:26.654Z,24.80
2023-04-06T00:23:53.741Z,27.67
2023-04-06T00:26:21.042Z,21.65
2023-04-06T00:28:48.132Z,24.80
2023-04-06T00:31:15.657Z,25.15
2023-04-06T00:33:42.643Z,22.58
2023-04-06T00:36:10.054Z,22.15
2023-04-06T00:38:37.296Z,18.83
2023-04-06T00:41:05.441Z,27.17
2023-04-06T00:43:33.875Z,21.50
2023-04-06T00:46:01.195Z,24.08
2023-04-06T00:48:28.268Z,32.05
2023-04-06T00:50:55.574Z,29.73
2023-04-06T00:53:22.657Z,27.35
2023-04-06T00:55:50.199Z,22.40
2023-04-06T00:58:17.293Z,27.52
2023-04-06T01:00:44.650Z,24.02
2023-04-06T01:03:11.696Z,25.00
2023-04-06T01:05:41.574Z,26.70
2023-04-06T01:08:08.872Z,29.23
2023-04-06T01:10:36.407Z,19.65
2023-04-06T01:13:03.636Z,35.15
2023-04-06T01:15:31.991Z,41.08
2023-04-06T01:17:59.017Z,41.67
2023-04-06T01:20:26.328Z,41.40
2023-04-06T01:22:53.293Z,52.88
2023-04-06T01:25:20.814Z,35.90
2023-04-06T01:27:47.799Z,30.40
2023-04-06T01:30:15.576Z,26.55
2023-04-06T01:32:42.875Z,25.92
2023-04-06T01:35:10.655Z,39.83
2023-04-06T01:37:37.960Z,59.05
2023-04-06T01:40:06.025Z,49.40
2023-04-06T01:42:33.290Z,39.70
2023-04-06T01:45:00.937Z,32.85
2023-04-06T01:47:28.098Z,25.52
2023-04-06T01:49:55.369Z,27.67
2023-04-06T01:52:22.415Z,22.05
2023-04-06T01:54:49.762Z,24.98
2023-04-06T01:57:16.833Z,30.77
2023-04-06T01:59:44.249Z,23.20
2023-04-06T02:02:11.423Z,32.67
2023-04-06T02:04:38.833Z,31.42
2023-04-06T02:07:06.006Z,33.22
2023-04-06T02:09:33.216Z,29.65
2023-04-06T02:12:00.232Z,34.53
2023-04-06T02:14:27.727Z,24.13
2023-04-06T02:16:55.338Z,28.73
2023-04-06T02:19:23.475Z,31.75
2023-04-06T02:21:50.691Z,33.13
2023-04-06T02:24:17.988Z,41.85
2023-04-06T02:26:44.984Z,83.07
2023-04-06T02:29:12.557Z,98.50
2023-04-06T02:31:39.550Z,51.33
2023-04-06T02:34:08.223Z,49.38
2023-04-06T02:36:35.490Z,58.00
2023-04-06T02:39:02.957Z,55.17
2023-04-06T02:41:29.987Z,52.42
2023-04-06T02:43:57.389Z,58.13
2023-04-06T02:46:24.659Z,55.30
2023-04-06T02:48:52.550Z,47.83
2023-04-06T02:51:19.656Z,54.20
2023-04-06T02:53:47.343Z,49.22
2023-04-06T02:56:14.489Z,59.60
2023-04-06T02:58:41.906Z,63.38
2023-04-06T03:01:09.013Z,45.47
2023-04-06T03:03:36.477Z,42.53
2023-04-06T03:06:04.177Z,42.05
2023-04-06T03:08:31.467Z,39.78
2023-04-06T03:10:58.500Z,37.58
2023-04-06T03:13:25.971Z,27.45
2023-04-06T03:15:53.035Z,39.72
2023-04-06T03:18:24.318Z,50.53
2023-04-06T03:20:51.922Z,51.08
2023-04-06T03:23:21.777Z,58.17
2023-04-06T03:25:48.762Z,58.63
2023-04-06T03:28:17.123Z,50.33
2023-04-06T03:30:44.200Z,44.13
2023-04-06T03:33:11.595Z,44.70
2023-04-06T03:35:38.906Z,59.25
2023-04-06T03:38:06.474Z,60.75
2023-04-06T03:40:33.477Z,56.20
2023-04-06T03:43:00.831Z,53.58
2023-04-06T03:45:27.852Z,52.53
2023-04-06T03:47:55.276Z,45.00
2023-04-06T03:50:22.464Z,35.78
2023-04-06T03:52:50.029Z,51.85
2023-04-06T03:55:17.161Z,78.82
2023-04-06T03:57:44.404Z,64.60
2023-04-06T04:00:12.060Z,60.40
2023-04-06T04:02:39.588Z,54.33
2023-04-06T04:05:07.213Z,25.17
2023-04-06T04:07:34.507Z,24.08
2023-04-06T04:10:01.460Z,20.90
2023-04-06T04:12:28.682Z,23.33
2023-04-06T04:14:55.787Z,24.90
2023-04-06T04:17:23.278Z,26.77
2023-04-06T04:19:50.436Z,21.10
2023-04-06T04:22:17.684Z,28.23
2023-04-06T04:24:44.735Z,34.55
2023-04-06T04:27:12.065Z,28.55
2023-04-06T04:29:39.181Z,22.60
2023-04-06T04:32:06.559Z,21.95
2023-04-06T04:34:33.916Z,33.28
2023-04-06T04:37:01.544Z,24.85
2023-04-06T04:39:28.492Z,23.02
2023-04-06T04:41:56.351Z,20.27
2023-04-06T04:44:23.320Z,26.55
2023-04-06T04:46:50.917Z,21.95
2023-04-06T04:49:17.872Z,27.30
2023-04-06T04:51:45.376Z,27.27
2023-04-06T04:54:12.399Z,24.75
2023-04-06T04:56:39.798Z,20.48
2023-04-06T04:59:07.254Z,20.33
2023-04-06T05:01:43.990Z,25.33
2023-04-06T05:04:21.539Z,23.08
2023-04-06T05:06:48.816Z,18.77
2023-04-06T05:09:16.128Z,21.38
2023-04-06T05:11:43.467Z,22.25
2023-04-06T05:14:13.593Z,19.52
2023-04-06T05:16:41.108Z,24.27
2023-04-06T05:19:08.357Z,24.25
2023-04-06T05:21:35.803Z,28.00
2023-04-06T05:24:03.604Z,23.73
2023-04-06T05:26:31.405Z,21.00
2023-04-06T05:28:58.512Z,20.60
2023-04-06T05:31:26.115Z,17.70
2023-04-06T05:33:53.412Z,24.38
2023-04-06T05:36:20.771Z,34.97
2023-04-06T05:38:48.110Z,42.88
2023-04-06T05:41:15.637Z,28.98
2023-04-06T05:43:42.679Z,24.00
2023-04-06T05:46:09.991Z,25.88
2023-04-06T05:48:36.989Z,21.45
2023-04-06T05:51:07.209Z,26.55
2023-04-06T05:53:34.268Z,23.25
2023-04-06T05:56:05.343Z,28.33
2023-04-06T05:58:32.388Z,26.40
2023-04-06T06:01:04.090Z,22.88
2023-04-06T06:03:31.235Z,21.05
2023-04-06T06:06:05.001Z,23.83
2023-04-06T06:08:32.587Z,21.13
2023-04-06T06:10:59.869Z,27.48
2023-04-06T06:13:26.985Z,23.42
2023-04-06T06:15:54.633Z,14.65
2023-04-06T06:18:21.662Z,19.85
2023-04-06T06:20:49.107Z,17.65
2023-04-06T06:23:16.174Z,20.58
2023-04-06T06:25:43.598Z,21.38
2023-04-06T06:28:10.553Z,23.15
2023-04-06T06:30:37.938Z,24.27
2023-04-06T06:33:05.001Z,26.50
2023-04-06T06:35:32.373Z,18.60
2023-04-06T06:37:59.525Z,18.38
2023-04-06T06:40:28.159Z,23.63
2023-04-06T06:42:55.513Z,33.13
2023-04-06T06:45:23.266Z,25.25
2023-04-06T06:47:51.677Z,23.83
2023-04-06T06:50:20.252Z,24.48
2023-04-06T06:52:47.309Z,34.92
2023-04-06T06:55:14.881Z,21.80
2023-04-06T06:57:43.448Z,19.70
2023-04-06T07:00:13.263Z,16.30
2023-04-06T07:02:41.193Z,16.25
2023-04-06T07:05:23.610Z,15.50
2023-04-06T07:07:53.707Z,15.73
2023-04-06T07:10:21.368Z,21.85
2023-04-06T07:12:49.466Z,17.23
2023-04-06T07:15:18.233Z,12.43
2023-04-06T07:17:48.120Z,12.85
2023-04-06T07:20:16.090Z,15.70
2023-04-06T07:22:49.341Z,16.30
2023-04-06T07:25:16.745Z,16.63
2023-04-06T07:27:43.982Z,12.27
2023-04-06T07:30:11.837Z,13.80
2023-04-06T07:32:39.268Z,21.55
2023-04-06T07:35:07.464Z,10.63
2023-04-06T07:37:34.555Z,12.50
2023-04-06T07:40:01.899Z,12.15
2023-04-06T07:42:29.003Z,13.07
2023-04-06T07:44:56.603Z,9.82
2023-04-06T07:47:24.625Z,11.18
2023-04-06T07:49:51.989Z,9.60
2023-04-06T07:52:19.044Z,12.45
2023-04-06T07:54:46.824Z,11.30
2023-04-06T07:57:13.773Z,9.77
2023-04-06T07:59:41.232Z,11.60
2023-04-06T08:02:08.411Z,12.38
2023-04-06T08:04:36.922Z,9.93
2023-04-06T08:07:04.112Z,7.40
2023-04-06T08:09:32.965Z,10.70
2023-04-06T08:12:00.198Z,7.82
2023-04-06T08:14:27.959Z,8.18
2023-04-06T08:16:55.091Z,10.35
2023-04-06T08:19:22.640Z,10.50
2023-04-06T08:25:37.915Z,7.38
2023-04-06T08:28:05.578Z,8.63
2023-04-06T08:30:32.860Z,5.43
2023-04-06T08:33:00.514Z,6.00
2023-04-06T08:35:28.572Z,8.48
2023-04-06T08:37:56.332Z,4.63
2023-04-06T08:40:23.436Z,4.78
2023-04-06T08:42:56.661Z,3.70
2023-04-06T08:47:55.805Z,2.97
2023-04-06T08:50:23.364Z,4.00
2023-04-06T08:52:50.823Z,1.80
2023-04-06T08:55:18.022Z,4.38
2023-04-06T08:57:48.104Z,3.50
2023-04-06T09:00:15.918Z,2.08
2023-04-06T09:02:46.481Z,4.78
2023-04-06T09:05:14.245Z,2.50
2023-04-06T09:07:41.923Z,4.15
2023-04-06T09:10:09.394Z,5.18
2023-04-06T09:12:37.066Z,4.07
2023-04-06T09:15:04.437Z,4.68
2023-04-06T09:17:34.731Z,4.68
2023-04-06T09:20:03.806Z,5.65
2023-04-06T09:22:41.595Z,5.78
2023-04-06T09:25:10.818Z,3.35
2023-04-06T09:27:39.276Z,2.20
2023-04-06T09:30:15.221Z,2.08
2023-04-06T09:32:48.014Z,4.68
2023-04-06T09:35:16.338Z,2.38
2023-04-06T09:37:44.930Z,3.90
2023-04-06T09:40:12.686Z,2.17
2023-04-06T09:42:42.712Z,3.15
2023-04-06T09:45:10.311Z,4.20
2023-04-06T09:47:39.099Z,3.03
2023-04-06T09:50:08.399Z,3.33
2023-04-06T09:52:50.453Z,6.70
2023-04-06T09:55:37.772Z,3.80
2023-04-06T09:58:09.935Z,4.95
2023-04-06T10:01:06.458Z,4.53
2023-04-06T10:03:58.809Z,5.05
2023-04-06T10:06:32.647Z,3.08
2023-04-06T10:09:02.293Z,2.25
2023-04-06T10:11:30.057Z,4.60
2023-04-06T10:13:57.789Z,4.35
2023-04-06T10:16:26.200Z,3.75
2023-04-06T10:18:59.088Z,4.85
2023-04-06T10:21:28.785Z,7.68
2023-04-06T10:24:01.376Z,7.07
2023-04-06T10:26:29.127Z,2.72
2023-04-06T10:29:06.476Z,3.88
2023-04-06T10:31:33.874Z,3.78
2023-04-06T10:34:03.118Z,4.35
2023-04-06T10:36:34.564Z,3.65
2023-04-06T10:39:05.494Z,5.00
2023-04-06T10:41:48.856Z,3.47
2023-04-06T10:44:23.088Z,2.40
2023-04-06T10:46:58.001Z,6.45
2023-04-06T10:49:27.876Z,2.70
2023-04-06T10:51:56.779Z,5.50
2023-04-06T10:54:26.901Z,4.28
2023-04-06T10:56:54.220Z,4.30
2023-04-06T10:59:22.886Z,3.38
2023-04-06T11:01:50.909Z,3.70
2023-04-06T11:04:19.984Z,3.65
2023-04-06T11:06:51.171Z,5.35
2023-04-06T11:09:26.254Z,3.67
2023-04-06T11:11:53.588Z,4.22
2023-04-06T11:14:21.191Z,3.45
2023-04-06T11:16:52.345Z,4.43
2023-04-06T11:19:19.979Z,3.13
2023-04-06T11:21:49.062Z,3.30
2023-04-06T11:24:24.278Z,2.15
2023-04-06T11:26:52.625Z,3.42
2023-04-06T11:29:22.445Z,2.85
2023-04-06T11:31:51.756Z,3.97
2023-04-06T11:34:22.524Z,3.42
2023-04-06T11:36:57.667Z,3.35
2023-04-06T11:39:28.493Z,3.60
2023-04-06T11:42:01.006Z,4.53
2023-04-06T11:44:43.616Z,5.10
2023-04-06T11:47:12.659Z,2.72
2023-04-06T11:49:43.271Z,4.43
2023-04-06T11:52:36.634Z,3.97
2023-04-06T11:55:18.506Z,5.47
2023-04-06T11:57:46.219Z,3.55
2023-04-06T12:00:14.179Z,5.32
2023-04-06T12:02:46.374Z,3.72
2023-04-06T12:05:14.077Z,3.38
2023-04-06T12:10:09.614Z,4.97
2023-04-06T12:12:36.700Z,2.30
2023-04-06T12:15:04.449Z,3.80
2023-04-06T12:17:31.736Z,3.63
2023-04-06T12:20:05.235Z,3.40
2023-04-06T12:22:37.374Z,4.80
2023-04-06T12:25:05.663Z,6.45
2023-04-06T12:27:32.693Z,3.63
2023-04-06T12:30:00.188Z,6.30
2023-04-06T12:32:27.302Z,4.38
2023-04-06T12:34:55.122Z,4.18
2023-04-06T12:37:22.201Z,4.38
2023-04-06T12:39:49.658Z,4.03
2023-04-06T12:42:16.978Z,6.05
2023-04-06T12:44:44.401Z,4.22
2023-04-06T12:47:12.109Z,4.72
2023-04-06T12:49:39.838Z,4.05
2023-04-06T12:52:06.972Z,4.50
2023-04-06T12:54:34.637Z,10.63
2023-04-06T12:57:02.101Z,4.20
2023-04-06T12:59:35.661Z,6.03
2023-04-06T13:04:30.321Z,4.82
2023-04-06T13:07:00.591Z,4.05
2023-04-06T13:09:28.137Z,4.68
2023-04-06T13:11:55.501Z,4.78
2023-04-06T13:14:23.037Z,6.75
2023-04-06T13:16:50.860Z,3.70
2023-04-06T13:19:19.271Z,3.75
2023-04-06T13:21:46.490Z,3.67
2023-04-06T13:24:16.219Z,4.88
2023-04-06T13:26:43.678Z,3.67
2023-04-06T13:29:11.326Z,4.90
2023-04-06T13:31:39.112Z,4.60
2023-04-06T13:34:07.297Z,5.75
2023-04-06T13:36:34.392Z,6.95
2023-04-06T13:39:01.940Z,5.07
2023-04-06T13:41:28.980Z,6.35
2023-04-06T13:43:56.456Z,6.00
2023-04-06T13:46:25.269Z,4.53
2023-04-06T13:48:52.940Z,4.43
2023-04-06T13:51:20.151Z,4.18
2023-04-06T13:53:47.496Z,4.85
2023-04-06T13:56:14.434Z,5.07
2023-04-06T13:58:41.957Z,4.72
2023-04-06T14:01:11.508Z,4.63
2023-04-06T14:03:40.740Z,6.55
2023-04-06T14:08:45.451Z,5.55
2023-04-06T14:11:13.918Z,5.97
2023-04-06T14:13:41.523Z,6.00
2023-04-06T14:16:08.651Z,7.90
2023-04-06T14:18:38.076Z,6.32
2023-04-06T14:21:05.378Z,6.03
2023-04-06T14:23:34.019Z,6.20
2023-04-06T14:26:11.708Z,8.57
2023-04-06T14:28:39.329Z,5.93
2023-04-06T14:31:16.240Z,5.40
2023-04-06T14:33:44.084Z,4.70
2023-04-06T14:36:12.216Z,5.03
2023-04-06T14:38:40.554Z,7.20
2023-04-06T14:41:08.978Z,8.80
2023-04-06T14:43:36.493Z,7.35
2023-04-06T14:46:03.767Z,11.88
2023-04-06T14:48:31.127Z,7.75
2023-04-06T14:50:58.817Z,7.97
2023-04-06T14:53:27.291Z,8.85
2023-04-06T14:55:54.736Z,7.93
2023-04-06T14:58:23.856Z,9.48
2023-04-06T15:00:56.265Z,10.10
2023-04-06T15:03:26.145Z,9.40
2023-04-06T15:05:54.086Z,9.18
2023-04-06T15:08:23.236Z,11.18
2023-04-06T15:10:51.583Z,9.60
2023-04-06T15:13:19.339Z,12.00
2023-04-06T15:15:46.494Z,13.60
2023-04-06T15:18:14.124Z,11.68
2023-04-06T15:20:42.017Z,14.23
2023-04-06T15:23:09.450Z,11.77
2023-04-06T15:25:36.526Z,11.25
2023-04-06T15:28:04.111Z,11.45
2023-04-06T15:30:31.157Z,9.52
2023-04-06T15:33:03.708Z,11.45
2023-04-06T15:35:31.047Z,9.43
2023-04-06T15:37:58.577Z,11.98
2023-04-06T15:40:26.122Z,10.82
2023-04-06T15:42:53.576Z,10.35
2023-04-06T15:45:20.497Z,9.52
2023-04-06T15:47:47.830Z,8.45
2023-04-06T15:50:15.228Z,11.05
2023-04-06T15:52:42.594Z,11.18
2023-04-06T15:55:09.966Z,12.15
2023-04-06T15:57:37.285Z,10.55
2023-04-06T16:00:06.153Z,13.98
2023-04-06T16:02:33.730Z,10.35
2023-04-06T16:05:03.006Z,11.38
2023-04-06T16:07:32.037Z,9.95
2023-04-06T16:09:59.355Z,10.38
2023-04-06T16:12:28.557Z,13.43
2023-04-06T16:14:56.124Z,7.95
2023-04-06T16:17:23.457Z,8.43
2023-04-06T16:19:50.566Z,12.52
2023-04-06T16:22:17.986Z,8.63
2023-04-06T16:24:45.053Z,12.93
2023-04-06T16:27:12.384Z,10.65
2023-04-06T16:29:39.457Z,10.38
2023-04-06T16:32:07.020Z,12.07
2023-04-06T16:34:34.493Z,9.73
2023-04-06T16:37:02.149Z,9.63
2023-04-06T16:39:29.325Z,10.40
2023-04-06T16:41:56.836Z,10.27
2023-04-06T16:44:24.244Z,13.75
2023-04-06T16:46:52.528Z,14.85
2023-04-06T16:49:20.772Z,14.25
2023-04-06T16:51:49.928Z,12.73
2023-04-06T16:54:17.168Z,11.18
2023-04-06T16:56:44.649Z,12.40
2023-04-06T16:59:12.047Z,14.05
2023-04-06T17:01:39.605Z,10.57
2023-04-06T17:04:06.875Z,11.77
2023-04-06T17:06:34.286Z,10.38
2023-04-06T17:09:01.367Z,13.05
2023-04-06T17:11:39.409Z,11.43
2023-04-06T17:14:12.863Z,11.38
2023-04-06T17:16:40.475Z,9.55
2023-04-06T17:19:07.852Z,14.27
2023-04-06T17:21:36.214Z,10.23
2023-04-06T17:24:03.341Z,12.30
2023-04-06T17:26:31.113Z,13.40
2023-04-06T17:28:58.545Z,13.60
2023-04-06T17:31:27.270Z,11.05
2023-04-06T17:33:56.481Z,14.23
2023-04-06T17:36:24.675Z,11.52
2023-04-06T17:38:51.962Z,13.20
2023-04-06T17:41:20.463Z,13.48
2023-04-06T17:43:48.785Z,14.38
2023-04-06T17:46:16.915Z,12.52
2023-04-06T17:48:44.316Z,13.40
2023-04-06T17:51:15.303Z,12.55
2023-04-06T17:53:42.400Z,12.45
2023-04-06T17:56:09.645Z,14.77
2023-04-06T17:58:36.726Z,24.58
2023-04-06T18:01:08.725Z,10.18
2023-04-06T18:03:35.967Z,12.73
2023-04-06T18:06:12.259Z,12.30
2023-04-06T18:08:40.597Z,9.73
2023-04-06T18:11:16.186Z,11.73
2023-04-06T18:13:43.324Z,13.45
2023-04-06T18:16:11.490Z,11.18
2023-04-06T18:18:39.170Z,8.43
2023-04-06T18:21:07.749Z,11.73
2023-04-06T18:23:36.479Z,8.40
2023-04-06T18:26:05.912Z,8.68
2023-04-06T18:28:33.674Z,9.55
2023-04-06T18:31:02.437Z,10.13
2023-04-06T18:33:29.947Z,9.70
2023-04-06T18:35:57.670Z,10.95
2023-04-06T18:38:24.915Z,10.30
2023-04-06T18:40:53.042Z,9.88
2023-04-06T18:43:20.245Z,12.52
2023-04-06T18:45:47.802Z,12.63
2023-04-06T18:48:14.994Z,8.13
2023-04-06T18:50:53.005Z,7.90
2023-04-06T18:53:21.155Z,8.90
2023-04-06T18:55:49.991Z,11.15
2023-04-06T18:58:17.035Z,7.55
2023-04-06T19:00:44.747Z,10.40
2023-04-06T19:03:12.064Z,6.93
2023-04-06T19:05:43.262Z,10.90
2023-04-06T19:08:10.930Z,10.15
2023-04-06T19:10:38.989Z,8.98
2023-04-06T19:13:06.189Z,7.63
2023-04-06T19:15:33.862Z,10.15
2023-04-06T19:18:01.319Z,10.77
2023-04-06T19:20:29.112Z,10.05
2023-04-06T19:22:57.396Z,8.13
2023-04-06T19:25:25.314Z,9.30
2023-04-06T19:27:52.749Z,8.68
2023-04-06T19:30:20.514Z,11.98
2023-04-06T19:32:47.556Z,9.57
2023-04-06T19:35:15.527Z,9.60
2023-04-06T19:37:43.312Z,9.57
2023-04-06T19:40:10.952Z,7.55
2023-04-06T19:42:38.955Z,7.95
2023-04-06T19:45:07.238Z,9.07
2023-04-06T19:47:35.527Z,8.43
2023-04-06T19:50:04.609Z,9.38
2023-04-06T19:52:32.846Z,10.68
2023-04-06T19:55:00.510Z,8.82
2023-04-06T19:57:28.007Z,8.55
2023-04-06T19:59:55.582Z,12.20
2023-04-06T20:02:23.154Z,12.25
2023-04-06T20:04:50.863Z,11.13
2023-04-06T20:07:17.848Z,12.48
2023-04-06T20:09:45.118Z,14.93
2023-04-06T20:12:12.083Z,13.27
2023-04-06T20:14:39.324Z,9.73
2023-04-06T20:17:06.549Z,10.70
2023-04-06T20:19:34.174Z,10.18
2023-04-06T20:22:03.623Z,10.20
2023-04-06T20:24:31.560Z,10.68
2023-04-06T20:26:59.427Z,9.88
2023-04-06T20:29:27.836Z,9.45
2023-04-06T20:31:55.010Z,10.32
2023-04-06T20:34:25.938Z,15.13
2023-04-06T20:36:53.767Z,10.02
2023-04-06T20:39:21.113Z,8.48
2023-04-06T20:41:48.550Z,8.18
2023-04-06T20:44:16.330Z,9.32
2023-04-06T20:46:45.700Z,9.48
2023-04-06T20:49:13.128Z,9.60
2023-04-06T20:51:42.580Z,9.80
2023-04-06T20:54:10.325Z,13.45
2023-04-06T20:56:37.586Z,11.23
2023-04-06T20:59:05.205Z,10.02
2023-04-06T21:01:32.369Z,11.50
2023-04-06T21:04:02.437Z,15.02
2023-04-06T21:06:32.243Z,11.52
2023-04-06T21:09:00.648Z,11.57
2023-04-06T21:11:27.765Z,12.88
2023-04-06T21:13:55.410Z,9.80
2023-04-06T21:16:22.753Z,10.38
2023-04-06T21:18:50.730Z,13.85
2023-04-06T21:21:18.091Z,16.20
2023-04-06T21:23:45.402Z,11.30
2023-04-06T21:26:13.085Z,13.05
2023-04-06T21:28:40.526Z,12.40
2023-04-06T21:31:08.879Z,12.05
2023-04-06T21:33:36.537Z,14.63
2023-04-06T21:36:07.564Z,15.20
2023-04-06T21:38:37.893Z,11.30
2023-04-06T21:41:06.532Z,13.55
2023-04-06T21:43:33.968Z,11.93
2023-04-06T21:46:01.112Z,8.52
2023-04-06T21:48:28.460Z,14.75
2023-04-06T21:50:55.510Z,10.73
2023-04-06T21:53:22.742Z,18.13
2023-04-06T21:55:49.755Z,11.90
2023-04-06T21:58:17.097Z,13.15
2023-04-06T22:00:44.205Z,12.80
2023-04-06T22:03:12.053Z,16.20
2023-04-06T22:05:39.344Z,13.45
2023-04-06T22:08:06.805Z,12.50
2023-04-06T22:10:33.859Z,17.92
2023-04-06T22:13:01.264Z,15.20
2023-04-06T22:15:28.345Z,14.10
2023-04-06T22:17:55.560Z,15.45
2023-04-06T22:20:22.671Z,14.00
2023-04-06T22:22:50.592Z,14.45
2023-04-06T22:25:17.591Z,10.38
2023-04-06T22:27:44.897Z,16.92
2023-04-06T22:30:12.197Z,14.55
2023-04-06T22:32:39.590Z,14.70
2023-04-06T22:35:07.271Z,15.13
2023-04-06T22:37:34.608Z,13.45
2023-04-06T22:40:01.554Z,17.45
2023-04-06T22:42:29.088Z,14.82
2023-04-06T22:44:56.270Z,16.48
2023-04-06T22:47:23.758Z,15.82
2023-04-06T22:49:50.743Z,13.52
2023-04-06T22:52:18.100Z,13.90
2023-04-06T22:54:45.419Z,11.75
2023-04-06T22:57:12.703Z,15.95
2023-04-06T22:59:39.697Z,13.40
2023-04-06T23:02:07.240Z,11.93
2023-04-06T23:04:34.440Z,13.95
2023-04-06T23:07:01.784Z,16.60
2023-04-06T23:09:28.912Z,19.80
2023-04-06T23:11:56.614Z,11.93
2023-04-06T23:14:23.571Z,13.82
2023-04-06T23:16:51.252Z,15.05
2023-04-06T23:19:18.344Z,15.52
2023-04-06T23:21:45.847Z,13.65
2023-04-06T23:24:12.871Z,13.32
2023-04-06T23:26:40.501Z,15.10
2023-04-06T23:29:07.474Z,15.35
2023-04-06T23:31:35.011Z,13.68
2023-04-06T23:34:02.352Z,14.18
2023-04-06T23:36:30.047Z,14.68
2023-04-06T23:38:57.327Z,14.07
2023-04-06T23:41:26.698Z,15.38
2023-04-06T23:43:54.106Z,14.13
2023-04-06T23:46:24.272Z,12.20
2023-04-06T23:48:51.265Z,14.45
2023-04-06T23:51:18.662Z,15.10
2023-04-06T23:53:46.295Z,14.93
2023-04-06T23:56:13.565Z,13.43
2023-04-06T23:58:40.589Z,12.45
